sensor_id;sensor_type;location;lat;lon;timestamp;temperature;humidity
2453;DHT22;63678;47.994;7.854;2023-07-22T00:02:56;17.80;99.90
2453;DHT22;63678;47.994;7.854;2023-07-22T00:05:29;17.70;99.90
2453;DHT22;63678;47.994;7.854;2023-07-22T00:08:01;17.60;99.90
2453;DHT22;63678;47.994;7.854;2023-07-22T00:10:34;17.60;99.90
2453;DHT22;63678;47.994;7.854;2023-07-22T00:13:06;17.20;99.90
2453;DHT22;63678;47.994;7.854;2023-07-22T00:15:39;17.40;99.90
2453;DHT22;63678;47.994;7.854;2023-07-22T00:18:11;17.40;99.90
2453;DHT22;63678;47.994;7.854;2023-07-22T00:23:17;17.60;99.90
2453;DHT22;63678;47.994;7.854;2023-07-22T00:25:50;17.70;99.90
2453;DHT22;63678;47.994;7.854;2023-07-22T00:28:24;17.50;99.90
2453;DHT22;63678;47.994;7.854;2023-07-22T00:30:56;17.10;99.90
2453;DHT22;63678;47.994;7.854;2023-07-22T00:33:29;17.30;99.90
2453;DHT22;63678;47.994;7.854;2023-07-22T00:36:02;17.60;99.90
2453;DHT22;63678;47.994;7.854;2023-07-22T00:38:35;16.90;99.90
2453;DHT22;63678;47.994;7.854;2023-07-22T00:41:07;17.30;99.90
2453;DHT22;63678;47.994;7.854;2023-07-22T00:43:40;17.20;99.90
2453;DHT22;63678;47.994;7.854;2023-07-22T00:46:12;16.90;99.90
2453;DHT22;63678;47.994;7.854;2023-07-22T00:48:46;16.70;99.90
2453;DHT22;63678;47.994;7.854;2023-07-22T00:51:20;16.90;99.90
2453;DHT22;63678;47.994;7.854;2023-07-22T00:53:54;16.90;99.90
2453;DHT22;63678;47.994;7.854;2023-07-22T00:56:26;17.00;99.90
2453;DHT22;63678;47.994;7.854;2023-07-22T00:58:59;17.00;99.90
2453;DHT22;63678;47.994;7.854;2023-07-22T01:01:33;17.10;99.90
2453;DHT22;63678;47.994;7.854;2023-07-22T01:04:05;17.10;99.90
2453;DHT22;63678;47.994;7.854;2023-07-22T01:06:38;17.20;99.90
2453;DHT22;63678;47.994;7.854;2023-07-22T01:09:10;16.50;99.90
2453;DHT22;63678;47.994;7.854;2023-07-22T01:11:43;16.80;99.90
2453;DHT22;63678;47.994;7.854;2023-07-22T01:14:16;16.70;99.90
2453;DHT22;63678;47.994;7.854;2023-07-22T01:16:48;16.90;99.90
2453;DHT22;63678;47.994;7.854;2023-07-22T01:19:21;17.10;99.90
2453;DHT22;63678;47.994;7.854;2023-07-22T01:21:53;17.10;99.90
2453;DHT22;63678;47.994;7.854;2023-07-22T01:24:27;16.90;99.90
2453;DHT22;63678;47.994;7.854;2023-07-22T01:27:00;16.80;99.90
2453;DHT22;63678;47.994;7.854;2023-07-22T01:29:35;17.00;99.90
2453;DHT22;63678;47.994;7.854;2023-07-22T01:32:08;17.20;99.90
2453;DHT22;63678;47.994;7.854;2023-07-22T01:34:41;17.40;99.90
2453;DHT22;63678;47.994;7.854;2023-07-22T01:37:14;17.20;99.90
2453;DHT22;63678;47.994;7.854;2023-07-22T01:39:46;17.50;99.90
2453;DHT22;63678;47.994;7.854;2023-07-22T01:42:18;17.50;99.90
2453;DHT22;63678;47.994;7.854;2023-07-22T01:44:52;17.50;99.90
2453;DHT22;63678;47.994;7.854;2023-07-22T01:47:25;17.80;99.90
2453;DHT22;63678;47.994;7.854;2023-07-22T01:49:58;17.40;99.90
2453;DHT22;63678;47.994;7.854;2023-07-22T01:52:30;16.80;99.90
2453;DHT22;63678;47.994;7.854;2023-07-22T01:55:03;16.90;99.90
2453;DHT22;63678;47.994;7.854;2023-07-22T01:57:38;17.10;99.90
2453;DHT22;63678;47.994;7.854;2023-07-22T02:00:12;17.00;99.90
2453;DHT22;63678;47.994;7.854;2023-07-22T02:02:44;17.20;99.90
2453;DHT22;63678;47.994;7.854;2023-07-22T02:05:17;17.50;99.90
2453;DHT22;63678;47.994;7.854;2023-07-22T02:07:51;17.40;99.90
2453;DHT22;63678;47.994;7.854;2023-07-22T02:10:23;17.40;99.90
2453;DHT22;63678;47.994;7.854;2023-07-22T02:12:56;17.30;99.90
2453;DHT22;63678;47.994;7.854;2023-07-22T02:15:28;17.20;99.90
2453;DHT22;63678;47.994;7.854;2023-07-22T02:18:02;17.10;99.90
2453;DHT22;63678;47.994;7.854;2023-07-22T02:20:34;17.20;99.90
2453;DHT22;63678;47.994;7.854;2023-07-22T02:23:06;16.90;99.90
2453;DHT22;63678;47.994;7.854;2023-07-22T02:25:41;16.70;99.90
2453;DHT22;63678;47.994;7.854;2023-07-22T02:28:14;17.00;99.90
2453;DHT22;63678;47.994;7.854;2023-07-22T02:30:48;16.70;99.90
2453;DHT22;63678;47.994;7.854;2023-07-22T02:33:22;17.10;99.90
2453;DHT22;63678;47.994;7.854;2023-07-22T02:38:31;17.00;99.90
2453;DHT22;63678;47.994;7.854;2023-07-22T02:41:04;16.70;99.90
2453;DHT22;63678;47.994;7.854;2023-07-22T02:43:40;17.00;99.90
2453;DHT22;63678;47.994;7.854;2023-07-22T02:46:12;16.80;99.90
2453;DHT22;63678;47.994;7.854;2023-07-22T02:48:45;16.90;99.90
2453;DHT22;63678;47.994;7.854;2023-07-22T02:51:17;17.10;99.90
2453;DHT22;63678;47.994;7.854;2023-07-22T02:53:49;16.70;99.90
2453;DHT22;63678;47.994;7.854;2023-07-22T02:56:22;17.00;99.90
2453;DHT22;63678;47.994;7.854;2023-07-22T02:58:56;17.20;99.90
2453;DHT22;63678;47.994;7.854;2023-07-22T03:01:29;17.10;99.90
2453;DHT22;63678;47.994;7.854;2023-07-22T03:04:02;15.90;99.90
2453;DHT22;63678;47.994;7.854;2023-07-22T03:06:36;15.50;99.90
2453;DHT22;63678;47.994;7.854;2023-07-22T03:09:08;15.30;99.90
2453;DHT22;63678;47.994;7.854;2023-07-22T03:11:40;15.10;99.90
2453;DHT22;63678;47.994;7.854;2023-07-22T03:16:46;14.90;99.90
2453;DHT22;63678;47.994;7.854;2023-07-22T03:19:18;14.90;99.90
2453;DHT22;63678;47.994;7.854;2023-07-22T03:24:23;14.80;99.90
2453;DHT22;63678;47.994;7.854;2023-07-22T03:27:18;14.80;99.90
2453;DHT22;63678;47.994;7.854;2023-07-22T03:29:51;14.70;99.90
2453;DHT22;63678;47.994;7.854;2023-07-22T03:32:23;14.70;99.90
2453;DHT22;63678;47.994;7.854;2023-07-22T03:34:56;14.60;99.90
2453;DHT22;63678;47.994;7.854;2023-07-22T03:37:29;14.60;99.90
2453;DHT22;63678;47.994;7.854;2023-07-22T03:40:03;14.60;99.90
2453;DHT22;63678;47.994;7.854;2023-07-22T03:42:43;14.60;99.90
2453;DHT22;63678;47.994;7.854;2023-07-22T03:45:15;14.50;99.90
2453;DHT22;63678;47.994;7.854;2023-07-22T03:47:51;15.00;99.90
2453;DHT22;63678;47.994;7.854;2023-07-22T03:50:28;15.40;99.90
2453;DHT22;63678;47.994;7.854;2023-07-22T03:53:01;16.00;99.90
2453;DHT22;63678;47.994;7.854;2023-07-22T03:55:33;16.00;99.90
2453;DHT22;63678;47.994;7.854;2023-07-22T03:58:06;15.80;99.90
2453;DHT22;63678;47.994;7.854;2023-07-22T04:00:39;15.50;99.90
2453;DHT22;63678;47.994;7.854;2023-07-22T04:03:11;15.50;99.90
2453;DHT22;63678;47.994;7.854;2023-07-22T04:05:44;15.90;99.90
2453;DHT22;63678;47.994;7.854;2023-07-22T04:08:17;16.00;99.90
2453;DHT22;63678;47.994;7.854;2023-07-22T04:10:57;16.30;99.90
2453;DHT22;63678;47.994;7.854;2023-07-22T04:13:29;16.30;99.90
2453;DHT22;63678;47.994;7.854;2023-07-22T04:16:02;16.20;99.90
2453;DHT22;63678;47.994;7.854;2023-07-22T04:18:35;15.90;99.90
2453;DHT22;63678;47.994;7.854;2023-07-22T04:21:07;15.90;99.90
2453;DHT22;63678;47.994;7.854;2023-07-22T04:23:39;16.00;99.90
2453;DHT22;63678;47.994;7.854;2023-07-22T04:26:12;16.00;99.90
2453;DHT22;63678;47.994;7.854;2023-07-22T04:28:44;15.90;99.90
2453;DHT22;63678;47.994;7.854;2023-07-22T04:31:16;16.40;99.90
2453;DHT22;63678;47.994;7.854;2023-07-22T04:33:49;16.30;99.90
2453;DHT22;63678;47.994;7.854;2023-07-22T04:38:55;16.20;99.90
2453;DHT22;63678;47.994;7.854;2023-07-22T04:41:27;16.20;99.90
2453;DHT22;63678;47.994;7.854;2023-07-22T04:46:32;16.40;99.90
2453;DHT22;63678;47.994;7.854;2023-07-22T04:49:05;15.90;99.90
2453;DHT22;63678;47.994;7.854;2023-07-22T04:51:37;15.90;99.90
2453;DHT22;63678;47.994;7.854;2023-07-22T04:54:09;15.60;99.90
2453;DHT22;63678;47.994;7.854;2023-07-22T04:56:42;15.90;99.90
2453;DHT22;63678;47.994;7.854;2023-07-22T04:59:15;16.10;99.90
2453;DHT22;63678;47.994;7.854;2023-07-22T05:01:47;15.90;99.90
2453;DHT22;63678;47.994;7.854;2023-07-22T05:04:41;16.00;99.90
2453;DHT22;63678;47.994;7.854;2023-07-22T05:07:14;16.20;99.90
2453;DHT22;63678;47.994;7.854;2023-07-22T05:09:46;16.50;99.90
2453;DHT22;63678;47.994;7.854;2023-07-22T05:12:19;16.50;99.90
2453;DHT22;63678;47.994;7.854;2023-07-22T05:14:51;16.00;99.90
2453;DHT22;63678;47.994;7.854;2023-07-22T05:17:23;16.10;99.90
2453;DHT22;63678;47.994;7.854;2023-07-22T05:19:58;16.70;99.90
2453;DHT22;63678;47.994;7.854;2023-07-22T05:22:30;16.50;99.90
2453;DHT22;63678;47.994;7.854;2023-07-22T05:25:06;16.70;99.90
2453;DHT22;63678;47.994;7.854;2023-07-22T05:27:39;16.80;99.90
2453;DHT22;63678;47.994;7.854;2023-07-22T05:30:13;16.80;99.90
2453;DHT22;63678;47.994;7.854;2023-07-22T05:33:03;16.50;99.90
2453;DHT22;63678;47.994;7.854;2023-07-22T05:35:36;16.70;99.90
2453;DHT22;63678;47.994;7.854;2023-07-22T05:38:08;16.80;99.90
2453;DHT22;63678;47.994;7.854;2023-07-22T05:43:13;16.90;99.90
2453;DHT22;63678;47.994;7.854;2023-07-22T05:45:46;17.00;99.90
2453;DHT22;63678;47.994;7.854;2023-07-22T05:48:18;17.00;99.90
2453;DHT22;63678;47.994;7.854;2023-07-22T05:50:50;17.00;99.90
2453;DHT22;63678;47.994;7.854;2023-07-22T05:53:23;17.20;99.90
2453;DHT22;63678;47.994;7.854;2023-07-22T05:58:28;17.20;99.90
2453;DHT22;63678;47.994;7.854;2023-07-22T06:01:01;17.40;99.90
2453;DHT22;63678;47.994;7.854;2023-07-22T06:06:05;17.50;99.90
2453;DHT22;63678;47.994;7.854;2023-07-22T06:08:39;17.70;99.90
2453;DHT22;63678;47.994;7.854;2023-07-22T06:11:11;17.90;99.90
2453;DHT22;63678;47.994;7.854;2023-07-22T06:13:44;17.90;99.90
2453;DHT22;63678;47.994;7.854;2023-07-22T06:16:16;18.00;99.90
2453;DHT22;63678;47.994;7.854;2023-07-22T06:18:49;18.00;99.90
2453;DHT22;63678;47.994;7.854;2023-07-22T06:21:21;18.50;99.90
2453;DHT22;63678;47.994;7.854;2023-07-22T06:23:54;18.50;99.90
2453;DHT22;63678;47.994;7.854;2023-07-22T06:26:26;18.70;99.90
2453;DHT22;63678;47.994;7.854;2023-07-22T06:28:59;18.50;99.90
2453;DHT22;63678;47.994;7.854;2023-07-22T06:31:32;18.40;99.90
2453;DHT22;63678;47.994;7.854;2023-07-22T06:34:04;18.50;99.90
2453;DHT22;63678;47.994;7.854;2023-07-22T06:36:37;18.90;99.90
2453;DHT22;63678;47.994;7.854;2023-07-22T06:39:09;18.70;99.90
2453;DHT22;63678;47.994;7.854;2023-07-22T06:41:42;18.70;99.90
2453;DHT22;63678;47.994;7.854;2023-07-22T06:44:14;18.90;99.90
2453;DHT22;63678;47.994;7.854;2023-07-22T06:46:47;18.90;99.90
2453;DHT22;63678;47.994;7.854;2023-07-22T06:49:19;19.50;99.90
2453;DHT22;63678;47.994;7.854;2023-07-22T06:51:52;20.60;99.90
2453;DHT22;63678;47.994;7.854;2023-07-22T06:54:24;20.50;99.90
2453;DHT22;63678;47.994;7.854;2023-07-22T06:56:57;22.20;99.90
2453;DHT22;63678;47.994;7.854;2023-07-22T06:59:29;23.70;99.90
2453;DHT22;63678;47.994;7.854;2023-07-22T07:02:03;24.40;99.90
2453;DHT22;63678;47.994;7.854;2023-07-22T07:04:37;24.80;99.90
2453;DHT22;63678;47.994;7.854;2023-07-22T07:07:09;25.80;99.90
2453;DHT22;63678;47.994;7.854;2023-07-22T07:09:42;25.90;99.90
2453;DHT22;63678;47.994;7.854;2023-07-22T07:12:14;25.90;99.90
2453;DHT22;63678;47.994;7.854;2023-07-22T07:14:50;26.50;99.90
2453;DHT22;63678;47.994;7.854;2023-07-22T07:17:24;27.00;99.90
2453;DHT22;63678;47.994;7.854;2023-07-22T07:19:59;26.90;99.90
2453;DHT22;63678;47.994;7.854;2023-07-22T07:22:32;27.40;99.90
2453;DHT22;63678;47.994;7.854;2023-07-22T07:25:04;26.90;99.90
2453;DHT22;63678;47.994;7.854;2023-07-22T07:27:37;26.90;99.90
2453;DHT22;63678;47.994;7.854;2023-07-22T07:30:10;26.70;99.70
2453;DHT22;63678;47.994;7.854;2023-07-22T07:32:42;27.00;99.50
2453;DHT22;63678;47.994;7.854;2023-07-22T07:35:15;25.60;99.90
2453;DHT22;63678;47.994;7.854;2023-07-22T07:37:47;26.50;99.90
2453;DHT22;63678;47.994;7.854;2023-07-22T07:40:20;27.20;99.10
2453;DHT22;63678;47.994;7.854;2023-07-22T07:42:52;25.40;99.90
2453;DHT22;63678;47.994;7.854;2023-07-22T07:45:24;25.80;99.90
2453;DHT22;63678;47.994;7.854;2023-07-22T07:47:57;25.40;99.90
2453;DHT22;63678;47.994;7.854;2023-07-22T07:50:30;26.10;99.90
2453;DHT22;63678;47.994;7.854;2023-07-22T07:53:02;27.60;99.90
2453;DHT22;63678;47.994;7.854;2023-07-22T07:55:34;27.90;99.90
2453;DHT22;63678;47.994;7.854;2023-07-22T07:58:07;27.40;99.90
2453;DHT22;63678;47.994;7.854;2023-07-22T08:00:39;27.20;99.90
2453;DHT22;63678;47.994;7.854;2023-07-22T08:03:12;27.10;99.90
2453;DHT22;63678;47.994;7.854;2023-07-22T08:05:44;27.30;99.90
2453;DHT22;63678;47.994;7.854;2023-07-22T08:08:40;27.40;99.90
2453;DHT22;63678;47.994;7.854;2023-07-22T08:11:14;27.40;99.90
2453;DHT22;63678;47.994;7.854;2023-07-22T08:13:46;27.90;99.90
2453;DHT22;63678;47.994;7.854;2023-07-22T08:16:19;27.30;99.90
2453;DHT22;63678;47.994;7.854;2023-07-22T08:18:52;27.70;99.90
2453;DHT22;63678;47.994;7.854;2023-07-22T08:21:24;27.50;99.90
2453;DHT22;63678;47.994;7.854;2023-07-22T08:23:57;27.20;99.70
2453;DHT22;63678;47.994;7.854;2023-07-22T08:26:29;26.90;99.90
2453;DHT22;63678;47.994;7.854;2023-07-22T08:29:02;26.90;99.20
2453;DHT22;63678;47.994;7.854;2023-07-22T08:31:36;25.90;99.90
2453;DHT22;63678;47.994;7.854;2023-07-22T08:34:08;26.90;99.40
2453;DHT22;63678;47.994;7.854;2023-07-22T08:36:41;27.10;99.40
2453;DHT22;63678;47.994;7.854;2023-07-22T08:39:14;27.20;98.90
2453;DHT22;63678;47.994;7.854;2023-07-22T08:41:49;27.10;97.60
2453;DHT22;63678;47.994;7.854;2023-07-22T08:44:25;27.10;97.90
2453;DHT22;63678;47.994;7.854;2023-07-22T08:47:00;26.20;98.90
2453;DHT22;63678;47.994;7.854;2023-07-22T08:49:35;26.90;98.90
2453;DHT22;63678;47.994;7.854;2023-07-22T08:52:09;26.40;98.60
2453;DHT22;63678;47.994;7.854;2023-07-22T08:54:43;26.90;98.20
2453;DHT22;63678;47.994;7.854;2023-07-22T08:57:17;27.00;97.90
2453;DHT22;63678;47.994;7.854;2023-07-22T08:59:51;27.00;98.10
2453;DHT22;63678;47.994;7.854;2023-07-22T09:02:25;27.80;97.70
2453;DHT22;63678;47.994;7.854;2023-07-22T09:04:57;26.70;96.60
2453;DHT22;63678;47.994;7.854;2023-07-22T09:07:33;26.60;97.70
2453;DHT22;63678;47.994;7.854;2023-07-22T09:10:06;25.70;97.10
2453;DHT22;63678;47.994;7.854;2023-07-22T09:12:42;25.60;97.70
2453;DHT22;63678;47.994;7.854;2023-07-22T09:15:14;26.10;97.10
2453;DHT22;63678;47.994;7.854;2023-07-22T09:17:47;26.10;97.00
2453;DHT22;63678;47.994;7.854;2023-07-22T09:20:21;25.90;97.40
2453;DHT22;63678;47.994;7.854;2023-07-22T09:25:43;26.50;96.10
2453;DHT22;63678;47.994;7.854;2023-07-22T09:28:16;26.70;96.30
2453;DHT22;63678;47.994;7.854;2023-07-22T09:30:48;26.30;96.50
2453;DHT22;63678;47.994;7.854;2023-07-22T09:33:22;26.50;97.20
2453;DHT22;63678;47.994;7.854;2023-07-22T09:35:54;26.00;96.60
2453;DHT22;63678;47.994;7.854;2023-07-22T09:38:27;25.00;97.00
2453;DHT22;63678;47.994;7.854;2023-07-22T09:40:59;25.70;97.00
2453;DHT22;63678;47.994;7.854;2023-07-22T09:43:37;25.90;96.60
2453;DHT22;63678;47.994;7.854;2023-07-22T09:46:10;25.70;97.20
2453;DHT22;63678;47.994;7.854;2023-07-22T09:48:46;25.90;96.30
2453;DHT22;63678;47.994;7.854;2023-07-22T09:51:18;25.60;94.60
2453;DHT22;63678;47.994;7.854;2023-07-22T09:54:01;25.00;93.90
2453;DHT22;63678;47.994;7.854;2023-07-22T09:56:46;25.60;94.50
2453;DHT22;63678;47.994;7.854;2023-07-22T09:59:21;25.80;94.60
2453;DHT22;63678;47.994;7.854;2023-07-22T10:01:55;26.10;95.00
2453;DHT22;63678;47.994;7.854;2023-07-22T10:04:33;26.90;95.20
2453;DHT22;63678;47.994;7.854;2023-07-22T10:07:07;27.60;95.40
2453;DHT22;63678;47.994;7.854;2023-07-22T10:09:43;26.70;95.50
2453;DHT22;63678;47.994;7.854;2023-07-22T10:12:15;26.20;95.60
2453;DHT22;63678;47.994;7.854;2023-07-22T10:14:48;25.40;96.00
2453;DHT22;63678;47.994;7.854;2023-07-22T10:17:21;25.50;95.70
2453;DHT22;63678;47.994;7.854;2023-07-22T10:19:57;26.20;95.40
2453;DHT22;63678;47.994;7.854;2023-07-22T10:22:30;26.10;95.70
2453;DHT22;63678;47.994;7.854;2023-07-22T10:25:05;25.70;96.30
2453;DHT22;63678;47.994;7.854;2023-07-22T10:27:39;25.00;96.50
2453;DHT22;63678;47.994;7.854;2023-07-22T10:30:15;24.60;96.50
2453;DHT22;63678;47.994;7.854;2023-07-22T10:32:53;24.80;96.20
2453;DHT22;63678;47.994;7.854;2023-07-22T10:38:09;26.20;95.30
2453;DHT22;63678;47.994;7.854;2023-07-22T10:41:12;27.00;94.70
2453;DHT22;63678;47.994;7.854;2023-07-22T10:43:55;26.90;94.60
2453;DHT22;63678;47.994;7.854;2023-07-22T10:46:33;26.90;94.70
2453;DHT22;63678;47.994;7.854;2023-07-22T10:49:14;26.50;94.40
2453;DHT22;63678;47.994;7.854;2023-07-22T10:51:50;25.70;94.60
2453;DHT22;63678;47.994;7.854;2023-07-22T10:54:34;25.60;95.20
2453;DHT22;63678;47.994;7.854;2023-07-22T10:57:28;25.70;95.40
2453;DHT22;63678;47.994;7.854;2023-07-22T11:02:33;25.60;95.50
2453;DHT22;63678;47.994;7.854;2023-07-22T11:05:06;26.50;94.60
2453;DHT22;63678;47.994;7.854;2023-07-22T11:07:45;26.80;94.50
2453;DHT22;63678;47.994;7.854;2023-07-22T11:10:19;26.90;94.60
2453;DHT22;63678;47.994;7.854;2023-07-22T11:12:51;27.50;94.40
2453;DHT22;63678;47.994;7.854;2023-07-22T11:15:29;27.80;92.30
2453;DHT22;63678;47.994;7.854;2023-07-22T11:18:01;27.40;91.70
2453;DHT22;63678;47.994;7.854;2023-07-22T11:20:34;27.80;91.50
2453;DHT22;63678;47.994;7.854;2023-07-22T11:23:07;29.60;92.20
2453;DHT22;63678;47.994;7.854;2023-07-22T11:28:14;27.30;92.10
2453;DHT22;63678;47.994;7.854;2023-07-22T11:30:46;27.70;92.00
2453;DHT22;63678;47.994;7.854;2023-07-22T11:33:20;27.40;91.90
2453;DHT22;63678;47.994;7.854;2023-07-22T11:35:52;27.40;92.10
2453;DHT22;63678;47.994;7.854;2023-07-22T11:38:25;27.70;92.00
2453;DHT22;63678;47.994;7.854;2023-07-22T11:40:58;27.20;92.30
2453;DHT22;63678;47.994;7.854;2023-07-22T11:43:31;27.20;92.50
2453;DHT22;63678;47.994;7.854;2023-07-22T11:46:07;27.40;92.00
2453;DHT22;63678;47.994;7.854;2023-07-22T11:48:52;27.90;92.10
2453;DHT22;63678;47.994;7.854;2023-07-22T11:51:25;27.00;91.80
2453;DHT22;63678;47.994;7.854;2023-07-22T11:53:58;26.70;91.60
2453;DHT22;63678;47.994;7.854;2023-07-22T11:56:31;26.70;92.00
2453;DHT22;63678;47.994;7.854;2023-07-22T11:59:04;27.50;91.90
2453;DHT22;63678;47.994;7.854;2023-07-22T12:01:37;27.90;92.20
2453;DHT22;63678;47.994;7.854;2023-07-22T12:04:11;27.70;92.20
2453;DHT22;63678;47.994;7.854;2023-07-22T12:09:17;27.40;92.00
2453;DHT22;63678;47.994;7.854;2023-07-22T12:11:56;27.10;92.20
2453;DHT22;63678;47.994;7.854;2023-07-22T12:14:34;27.10;92.40
2453;DHT22;63678;47.994;7.854;2023-07-22T12:17:10;26.70;92.30
2453;DHT22;63678;47.994;7.854;2023-07-22T12:19:52;26.90;92.20
2453;DHT22;63678;47.994;7.854;2023-07-22T12:22:28;26.80;92.40
2453;DHT22;63678;47.994;7.854;2023-07-22T12:27:37;27.50;92.00
2453;DHT22;63678;47.994;7.854;2023-07-22T12:30:09;27.40;91.40
2453;DHT22;63678;47.994;7.854;2023-07-22T12:32:43;27.00;91.90
2453;DHT22;63678;47.994;7.854;2023-07-22T12:35:15;27.50;91.80
2453;DHT22;63678;47.994;7.854;2023-07-22T12:37:48;27.80;91.60
2453;DHT22;63678;47.994;7.854;2023-07-22T12:45:26;27.00;92.30
2453;DHT22;63678;47.994;7.854;2023-07-22T12:50:32;26.70;92.00
2453;DHT22;63678;47.994;7.854;2023-07-22T12:53:05;26.80;92.10
2453;DHT22;63678;47.994;7.854;2023-07-22T12:55:37;26.90;91.90
2453;DHT22;63678;47.994;7.854;2023-07-22T13:00:42;27.20;91.80
2453;DHT22;63678;47.994;7.854;2023-07-22T13:03:15;27.40;91.90
2453;DHT22;63678;47.994;7.854;2023-07-22T13:05:47;27.40;92.10
2453;DHT22;63678;47.994;7.854;2023-07-22T13:08:20;27.80;92.00
2453;DHT22;63678;47.994;7.854;2023-07-22T13:13:25;27.20;91.60
2453;DHT22;63678;47.994;7.854;2023-07-22T13:18:30;27.50;91.60
2453;DHT22;63678;47.994;7.854;2023-07-22T13:21:03;27.80;91.30
2453;DHT22;63678;47.994;7.854;2023-07-22T13:23:35;27.40;90.90
2453;DHT22;63678;47.994;7.854;2023-07-22T13:26:08;27.30;91.70
2453;DHT22;63678;47.994;7.854;2023-07-22T13:28:40;27.60;91.80
2453;DHT22;63678;47.994;7.854;2023-07-22T13:31:13;27.90;91.30
2453;DHT22;63678;47.994;7.854;2023-07-22T13:33:45;27.60;91.00
2453;DHT22;63678;47.994;7.854;2023-07-22T13:36:18;27.60;91.20
2453;DHT22;63678;47.994;7.854;2023-07-22T13:41:23;27.20;91.20
2453;DHT22;63678;47.994;7.854;2023-07-22T13:43:56;27.10;91.70
2453;DHT22;63678;47.994;7.854;2023-07-22T13:46:28;27.70;91.30
2453;DHT22;63678;47.994;7.854;2023-07-22T13:49:01;27.80;91.30
2453;DHT22;63678;47.994;7.854;2023-07-22T13:51:34;27.50;91.30
2453;DHT22;63678;47.994;7.854;2023-07-22T13:54:06;27.50;90.90
2453;DHT22;63678;47.994;7.854;2023-07-22T13:56:39;27.80;90.20
2453;DHT22;63678;47.994;7.854;2023-07-22T13:59:11;27.80;90.30
2453;DHT22;63678;47.994;7.854;2023-07-22T14:01:43;28.20;90.50
2453;DHT22;63678;47.994;7.854;2023-07-22T14:04:16;28.20;90.60
2453;DHT22;63678;47.994;7.854;2023-07-22T14:06:48;28.60;89.60
2453;DHT22;63678;47.994;7.854;2023-07-22T14:09:21;28.40;89.10
2453;DHT22;63678;47.994;7.854;2023-07-22T14:11:53;27.80;89.70
2453;DHT22;63678;47.994;7.854;2023-07-22T14:14:25;27.40;90.20
2453;DHT22;63678;47.994;7.854;2023-07-22T14:17:00;27.50;90.80
2453;DHT22;63678;47.994;7.854;2023-07-22T14:19:33;27.00;90.70
2453;DHT22;63678;47.994;7.854;2023-07-22T14:22:06;27.50;90.70
2453;DHT22;63678;47.994;7.854;2023-07-22T14:24:38;27.90;90.30
2453;DHT22;63678;47.994;7.854;2023-07-22T14:27:11;25.80;88.70
2453;DHT22;63678;47.994;7.854;2023-07-22T14:29:43;28.10;89.90
2453;DHT22;63678;47.994;7.854;2023-07-22T14:34:49;27.60;89.80
2453;DHT22;63678;47.994;7.854;2023-07-22T14:37:22;27.60;90.00
2453;DHT22;63678;47.994;7.854;2023-07-22T14:39:55;27.60;89.10
2453;DHT22;63678;47.994;7.854;2023-07-22T14:42:27;27.50;89.60
2453;DHT22;63678;47.994;7.854;2023-07-22T14:45:00;27.90;90.00
2453;DHT22;63678;47.994;7.854;2023-07-22T14:50:07;27.40;89.60
2453;DHT22;63678;47.994;7.854;2023-07-22T14:52:40;27.30;90.20
2453;DHT22;63678;47.994;7.854;2023-07-22T14:55:12;27.40;90.40
2453;DHT22;63678;47.994;7.854;2023-07-22T14:57:44;27.60;88.90
2453;DHT22;63678;47.994;7.854;2023-07-22T15:00:18;27.60;89.30
2453;DHT22;63678;47.994;7.854;2023-07-22T15:02:51;28.00;88.10
2453;DHT22;63678;47.994;7.854;2023-07-22T15:05:23;28.10;88.60
2453;DHT22;63678;47.994;7.854;2023-07-22T15:07:56;27.70;86.70
2453;DHT22;63678;47.994;7.854;2023-07-22T15:10:29;27.60;87.30
2453;DHT22;63678;47.994;7.854;2023-07-22T15:13:01;28.20;88.20
2453;DHT22;63678;47.994;7.854;2023-07-22T15:15:35;27.90;87.30
2453;DHT22;63678;47.994;7.854;2023-07-22T15:18:07;28.10;87.60
2453;DHT22;63678;47.994;7.854;2023-07-22T15:20:40;25.80;85.80
2453;DHT22;63678;47.994;7.854;2023-07-22T15:23:12;27.80;87.20
2453;DHT22;63678;47.994;7.854;2023-07-22T15:25:44;29.20;88.40
2453;DHT22;63678;47.994;7.854;2023-07-22T15:28:17;27.80;88.00
2453;DHT22;63678;47.994;7.854;2023-07-22T15:30:50;27.80;87.30
2453;DHT22;63678;47.994;7.854;2023-07-22T15:33:23;27.90;87.20
2453;DHT22;63678;47.994;7.854;2023-07-22T15:35:55;27.90;87.70
2453;DHT22;63678;47.994;7.854;2023-07-22T15:38:27;27.80;87.40
2453;DHT22;63678;47.994;7.854;2023-07-22T15:41:00;27.90;87.60
2453;DHT22;63678;47.994;7.854;2023-07-22T15:43:34;27.60;86.60
2453;DHT22;63678;47.994;7.854;2023-07-22T15:46:06;27.80;86.10
2453;DHT22;63678;47.994;7.854;2023-07-22T15:48:38;27.80;86.70
2453;DHT22;63678;47.994;7.854;2023-07-22T15:53:44;27.90;87.50
2453;DHT22;63678;47.994;7.854;2023-07-22T15:56:16;27.80;87.70
2453;DHT22;63678;47.994;7.854;2023-07-22T15:58:49;27.60;87.90
2453;DHT22;63678;47.994;7.854;2023-07-22T16:01:21;29.00;89.30
2453;DHT22;63678;47.994;7.854;2023-07-22T16:03:54;27.70;85.70
2453;DHT22;63678;47.994;7.854;2023-07-22T16:06:27;27.60;86.40
2453;DHT22;63678;47.994;7.854;2023-07-22T16:09:04;27.60;86.90
2453;DHT22;63678;47.994;7.854;2023-07-22T16:11:37;27.90;87.20
2453;DHT22;63678;47.994;7.854;2023-07-22T16:14:09;27.60;87.70
2453;DHT22;63678;47.994;7.854;2023-07-22T16:16:42;27.70;88.00
2453;DHT22;63678;47.994;7.854;2023-07-22T16:19:14;27.80;88.10
2453;DHT22;63678;47.994;7.854;2023-07-22T16:21:47;27.80;88.10
2453;DHT22;63678;47.994;7.854;2023-07-22T16:24:19;27.50;88.00
2453;DHT22;63678;47.994;7.854;2023-07-22T16:26:52;27.50;87.30
2453;DHT22;63678;47.994;7.854;2023-07-22T16:29:25;27.10;87.30
2453;DHT22;63678;47.994;7.854;2023-07-22T16:34:31;26.90;88.60
2453;DHT22;63678;47.994;7.854;2023-07-22T16:37:03;26.80;89.30
2453;DHT22;63678;47.994;7.854;2023-07-22T16:42:09;26.90;89.20
2453;DHT22;63678;47.994;7.854;2023-07-22T16:44:42;27.00;89.20
2453;DHT22;63678;47.994;7.854;2023-07-22T16:47:14;26.90;88.90
2453;DHT22;63678;47.994;7.854;2023-07-22T16:49:49;27.10;89.20
2453;DHT22;63678;47.994;7.854;2023-07-22T16:52:22;27.10;89.40
2453;DHT22;63678;47.994;7.854;2023-07-22T16:54:55;26.90;89.40
2453;DHT22;63678;47.994;7.854;2023-07-22T16:57:27;27.00;90.00
2453;DHT22;63678;47.994;7.854;2023-07-22T17:00:00;27.10;89.90
2453;DHT22;63678;47.994;7.854;2023-07-22T17:02:32;27.10;90.00
2453;DHT22;63678;47.994;7.854;2023-07-22T17:05:05;27.10;90.10
2453;DHT22;63678;47.994;7.854;2023-07-22T17:07:39;27.10;90.00
2453;DHT22;63678;47.994;7.854;2023-07-22T17:10:13;27.00;90.10
2453;DHT22;63678;47.994;7.854;2023-07-22T17:12:46;26.80;90.30
2453;DHT22;63678;47.994;7.854;2023-07-22T17:15:19;26.80;90.20
2453;DHT22;63678;47.994;7.854;2023-07-22T17:17:51;26.70;90.50
2453;DHT22;63678;47.994;7.854;2023-07-22T17:20:24;26.50;90.60
2453;DHT22;63678;47.994;7.854;2023-07-22T17:22:56;26.60;90.60
2453;DHT22;63678;47.994;7.854;2023-07-22T17:25:29;26.60;90.60
2453;DHT22;63678;47.994;7.854;2023-07-22T17:28:02;26.70;90.80
2453;DHT22;63678;47.994;7.854;2023-07-22T17:30:34;26.70;90.90
2453;DHT22;63678;47.994;7.854;2023-07-22T17:33:06;26.40;91.00
2453;DHT22;63678;47.994;7.854;2023-07-22T17:35:39;26.40;91.20